createdAt,value
2022-09-12T00:01:21.974Z,97629.06
2022-09-12T00:06:29.105Z,97636.03
2022-09-12T00:11:33.102Z,97633.59
2022-09-12T00:16:37.601Z,97629.75
2022-09-12T00:21:43.150Z,97634.06
2022-09-12T00:26:46.739Z,97633.69
2022-09-12T00:31:50.373Z,97629.22
2022-09-12T00:36:55.326Z,97623.97
2022-09-12T00:41:58.803Z,97623.81
2022-09-12T00:47:07.061Z,97618.47
2022-09-12T00:52:14.551Z,97611.06
2022-09-12T00:57:20.214Z,97602.81
2022-09-12T01:02:24.229Z,97609.19
2022-09-12T01:07:29.971Z,97606.81
2022-09-12T01:12:34.611Z,97604.03
2022-09-12T01:17:50.119Z,97596.25
2022-09-12T01:23:23.927Z,97591.88
2022-09-12T01:28:57.808Z,97594.06
2022-09-12T01:34:18.544Z,97590.34
2022-09-12T01:39:31.205Z,97589.91
2022-09-12T01:44:42.697Z,97582.28
2022-09-12T01:49:53.333Z,97581.47
2022-09-12T01:55:06.506Z,97592.00
2022-09-12T02:00:14.242Z,97572.78
2022-09-12T02:05:26.434Z,97566.78
2022-09-12T02:10:34.142Z,97563.16
2022-09-12T02:15:44.541Z,97565.78
2022-09-12T02:20:51.269Z,97567.47
2022-09-12T02:25:58.973Z,97569.13
2022-09-12T02:31:15.341Z,97577.56
2022-09-12T02:36:31.413Z,97571.03
2022-09-12T02:41:34.998Z,97559.97
2022-09-12T02:46:43.909Z,97566.44
2022-09-12T02:51:49.696Z,97560.84
2022-09-12T02:56:53.365Z,97555.47
2022-09-12T03:02:16.906Z,97560.34
2022-09-12T03:07:35.456Z,97558.06
2022-09-12T03:12:50.079Z,97560.34
2022-09-12T03:18:05.693Z,97559.00
2022-09-12T03:23:18.732Z,97547.38
2022-09-12T03:28:24.204Z,97552.59
2022-09-12T03:33:28.329Z,97548.06
2022-09-12T03:38:33.381Z,97552.31
2022-09-12T03:43:37.040Z,97550.22
2022-09-12T03:48:40.657Z,97554.66
2022-09-12T03:53:45.751Z,97556.53
2022-09-12T03:58:49.325Z,97557.06
2022-09-12T04:03:53.717Z,97553.25
2022-09-12T04:08:58.923Z,97551.69
2022-09-12T04:14:02.594Z,97554.13
2022-09-12T04:19:06.133Z,97556.13
2022-09-12T04:24:11.446Z,97555.28
2022-09-12T04:29:15.938Z,97555.16
2022-09-12T04:34:19.895Z,97560.84
2022-09-12T04:39:25.320Z,97567.63
2022-09-12T04:44:29.079Z,97556.66
2022-09-12T04:49:33.008Z,97562.78
2022-09-12T04:54:38.521Z,97568.47
2022-09-12T04:59:42.439Z,97548.44
2022-09-12T05:04:46.997Z,97558.44
2022-09-12T05:09:52.647Z,97565.28
2022-09-12T05:14:56.450Z,97559.72
2022-09-12T05:20:00.807Z,97570.97
2022-09-12T05:25:07.054Z,97567.09
2022-09-12T05:30:12.274Z,97567.41
2022-09-12T05:35:16.253Z,97567.69
2022-09-12T05:40:21.747Z,97561.91
2022-09-12T05:45:27.150Z,97580.50
2022-09-12T05:50:31.040Z,97583.28
2022-09-12T05:55:36.831Z,97585.47
2022-09-12T06:00:40.690Z,97583.31
2022-09-12T06:05:47.648Z,97576.63
2022-09-12T06:11:02.242Z,97580.59
2022-09-12T06:16:08.230Z,97581.38
2022-09-12T06:21:13.489Z,97577.69
2022-09-12T06:26:21.666Z,97574.81
2022-09-12T06:31:28.019Z,97567.00
2022-09-12T06:36:33.977Z,97576.97
2022-09-12T06:41:43.094Z,97573.00
2022-09-12T06:46:47.462Z,97565.91
2022-09-12T06:51:50.966Z,97566.84
2022-09-12T06:56:55.789Z,97563.72
2022-09-12T07:01:59.394Z,97569.91
2022-09-12T07:07:03.117Z,97566.19
2022-09-12T07:12:09.005Z,97565.41
2022-09-12T07:17:12.434Z,97558.78
2022-09-12T07:22:16.049Z,97562.69
2022-09-12T07:27:20.999Z,97563.16
2022-09-12T07:32:24.903Z,97555.03
2022-09-12T07:37:31.686Z,97558.25
2022-09-12T07:42:36.718Z,97551.53
2022-09-12T07:47:41.080Z,97549.03
2022-09-12T07:52:44.636Z,97552.94
2022-09-12T07:57:52.161Z,97546.56
2022-09-12T08:02:56.627Z,97550.97
2022-09-12T08:08:00.189Z,97556.34
2022-09-12T08:13:05.071Z,97554.31
2022-09-12T08:18:08.549Z,97559.69
2022-09-12T08:23:12.132Z,97549.78
2022-09-12T08:28:17.096Z,97555.50
2022-09-12T08:33:20.676Z,97557.56
2022-09-12T08:38:24.205Z,97553.75
2022-09-12T08:43:44.392Z,97548.66
2022-09-12T08:48:48.133Z,97548.06
2022-09-12T08:53:56.433Z,97547.94
2022-09-12T08:59:01.304Z,97544.56
2022-09-12T09:04:32.022Z,97535.25
2022-09-12T09:09:49.001Z,97531.63
2022-09-12T09:15:21.487Z,97534.06
2022-09-12T09:20:30.862Z,97522.47
2022-09-12T09:25:44.836Z,97524.03
2022-09-12T09:30:50.622Z,97515.44
2022-09-12T09:36:02.905Z,97513.75
2022-09-12T09:41:21.552Z,97513.66
2022-09-12T09:46:28.234Z,97515.53
2022-09-12T09:51:36.488Z,97507.81
2022-09-12T09:56:42.448Z,97511.38
2022-09-12T10:01:49.277Z,97501.72
2022-09-12T10:06:54.642Z,97503.38
2022-09-12T10:11:58.846Z,97501.19
2022-09-12T10:17:22.396Z,97496.25
2022-09-12T10:22:28.709Z,97482.91
2022-09-12T10:27:34.040Z,97480.59
2022-09-12T10:32:41.349Z,97482.56
2022-09-12T10:37:54.547Z,97476.69
2022-09-12T10:42:59.421Z,97470.69
2022-09-12T10:48:25.323Z,97477.09
2022-09-12T10:53:34.671Z,97465.97
2022-09-12T10:59:00.757Z,97464.94
2022-09-12T11:04:23.355Z,97462.78
2022-09-12T11:09:32.402Z,97457.50
2022-09-12T11:14:49.808Z,97449.03
2022-09-12T11:20:18.472Z,97446.84
2022-09-12T11:25:33.032Z,97452.94
2022-09-12T11:30:43.859Z,97449.19
2022-09-12T11:35:55.213Z,97447.47
2022-09-12T11:41:02.432Z,97440.22
2022-09-12T11:46:15.730Z,97442.31
2022-09-12T11:51:25.501Z,97437.88
2022-09-12T11:56:29.286Z,97435.13
2022-09-12T12:01:43.888Z,97427.03
2022-09-12T12:06:58.988Z,97427.75
2022-09-12T12:12:08.447Z,97426.03
2022-09-12T12:17:17.553Z,97420.53
2022-09-12T12:22:25.472Z,97413.91
2022-09-12T12:27:48.144Z,97408.69
2022-09-12T12:32:51.882Z,97412.31
2022-09-12T12:37:58.884Z,97396.34
2022-09-12T12:43:31.662Z,97394.88
2022-09-12T12:48:46.076Z,97392.16
2022-09-12T12:53:51.901Z,97383.81
2022-09-12T12:59:02.574Z,97376.00
2022-09-12T13:04:16.067Z,97368.44
2022-09-12T13:09:28.009Z,97365.75
2022-09-12T13:14:52.711Z,97359.66
2022-09-12T13:20:26.846Z,97355.34
2022-09-12T13:25:35.309Z,97351.00
2022-09-12T13:30:43.109Z,97354.56
2022-09-12T13:36:14.705Z,97336.41
2022-09-12T13:41:34.360Z,97333.28
2022-09-12T13:46:38.739Z,97328.41
2022-09-12T13:51:42.900Z,97324.81
2022-09-12T14:01:55.492Z,97319.16
2022-09-12T14:07:01.183Z,97311.28
2022-09-12T14:12:18.051Z,97315.94
2022-09-12T14:17:29.899Z,97320.28
2022-09-12T14:22:34.442Z,97315.72
2022-09-12T14:27:47.976Z,97309.28
2022-09-12T14:33:19.950Z,97304.28
2022-09-12T14:38:32.651Z,97297.06
2022-09-12T14:43:45.546Z,97296.78
2022-09-12T14:48:52.628Z,97291.94
2022-09-12T14:53:56.338Z,97286.78
2022-09-12T14:59:32.598Z,97278.72
2022-09-12T15:04:41.055Z,97273.88
2022-09-12T15:09:47.390Z,97282.63
2022-09-12T15:14:52.900Z,97279.03
2022-09-12T15:19:57.128Z,97274.41
2022-09-12T15:25:01.875Z,97269.44
2022-09-12T15:30:09.247Z,97268.56
2022-09-12T15:35:20.677Z,97267.97
2022-09-12T15:40:27.073Z,97265.03
2022-09-12T15:45:35.086Z,97265.28
2022-09-12T15:50:39.048Z,97260.00
2022-09-12T15:55:44.014Z,97258.34
2022-09-12T16:00:49.288Z,97247.81
2022-09-12T16:05:57.920Z,97250.16
2022-09-12T16:11:05.945Z,97251.06
2022-09-12T16:16:12.293Z,97241.84
2022-09-12T16:21:20.145Z,97251.13
2022-09-12T16:26:23.820Z,97242.03
2022-09-12T16:31:29.221Z,97232.44
2022-09-12T16:36:32.932Z,97240.41
2022-09-12T16:41:36.671Z,97238.28
2022-09-12T16:46:42.098Z,97236.97
2022-09-12T16:51:47.649Z,97224.28
2022-09-12T16:56:52.624Z,97231.38
2022-09-12T17:01:57.977Z,97224.50
2022-09-12T17:07:02.966Z,97229.88
2022-09-12T17:12:07.140Z,97217.25
2022-09-12T17:17:13.514Z,97212.25
2022-09-12T17:22:17.678Z,97213.47
2022-09-12T17:27:21.621Z,97208.22
2022-09-12T17:32:26.829Z,97211.09
2022-09-12T17:37:36.896Z,97221.28
2022-09-12T17:42:41.142Z,97214.13
2022-09-12T17:47:47.293Z,97226.97
2022-09-12T17:52:53.888Z,97221.66
2022-09-12T17:57:59.978Z,97218.28
2022-09-12T18:03:05.913Z,97215.38
2022-09-12T18:08:13.738Z,97214.00
2022-09-12T18:13:19.562Z,97224.59
2022-09-12T18:18:24.518Z,97216.09
2022-09-12T18:23:28.947Z,97212.34
2022-09-12T18:28:33.770Z,97216.16
2022-09-12T18:33:39.133Z,97211.38
2022-09-12T18:38:44.631Z,97209.97
2022-09-12T18:43:55.743Z,97211.34
2022-09-12T18:49:05.143Z,97220.38
2022-09-12T18:54:13.950Z,97214.53
2022-09-12T18:59:21.028Z,97206.91
2022-09-12T19:04:26.753Z,97220.75
2022-09-12T19:09:30.994Z,97225.94
2022-09-12T19:14:38.881Z,97228.28
2022-09-12T19:20:00.023Z,97234.75
2022-09-12T19:25:08.544Z,97231.31
2022-09-12T19:30:13.874Z,97231.75
2022-09-12T19:35:19.434Z,97237.06
2022-09-12T19:40:24.767Z,97228.88
2022-09-12T19:45:34.181Z,97233.13
2022-09-12T19:50:43.240Z,97236.63
2022-09-12T19:55:48.533Z,97227.84
2022-09-12T20:00:52.188Z,97228.34
2022-09-12T20:06:03.503Z,97219.38
2022-09-12T20:11:08.597Z,97213.66
2022-09-12T20:16:21.037Z,97215.28
2022-09-12T20:21:32.095Z,97223.25
2022-09-12T20:26:36.568Z,97221.50
2022-09-12T20:31:42.293Z,97222.19
2022-09-12T20:36:47.911Z,97206.59
2022-09-12T20:41:51.894Z,97199.91
2022-09-12T20:46:55.569Z,97190.41
2022-09-12T20:52:00.643Z,97191.56
2022-09-12T20:57:04.522Z,97173.81
2022-09-12T21:02:08.344Z,97172.41
2022-09-12T21:07:16.051Z,97169.91
2022-09-12T21:12:20.334Z,97168.09
2022-09-12T21:17:24.677Z,97166.16
2022-09-12T21:22:31.008Z,97162.66
2022-09-12T21:27:34.731Z,97164.31
2022-09-12T21:32:39.255Z,97158.72
2022-09-12T21:37:45.387Z,97160.72
2022-09-12T21:42:50.948Z,97140.31
2022-09-12T21:47:54.889Z,97141.03
2022-09-12T21:52:59.976Z,97140.88
2022-09-12T21:58:03.683Z,97135.03
2022-09-12T22:03:07.535Z,97140.44
2022-09-12T22:08:12.637Z,97124.13
2022-09-12T22:13:17.761Z,97123.41
2022-09-12T22:18:21.929Z,97119.09
2022-09-12T22:23:44.888Z,97114.19
2022-09-12T22:28:49.325Z,97114.19
2022-09-12T22:33:53.398Z,97117.13
2022-09-12T22:38:58.849Z,97109.31
2022-09-12T22:44:02.787Z,97109.88
2022-09-12T22:49:07.506Z,97097.44
2022-09-12T22:54:12.899Z,97099.00
2022-09-12T22:59:16.575Z,97090.03
2022-09-12T23:04:20.006Z,97085.97
2022-09-12T23:09:25.254Z,97076.06
2022-09-12T23:14:29.192Z,97063.25
2022-09-12T23:19:32.874Z,97074.63
2022-09-12T23:24:38.773Z,97069.31
2022-09-12T23:29:42.439Z,97069.63
2022-09-12T23:34:46.812Z,97078.09
2022-09-12T23:39:52.485Z,97067.00
2022-09-12T23:44:56.259Z,97070.19
2022-09-12T23:49:59.771Z,97059.84
2022-09-12T23:55:05.196Z,97062.78
